Ocoee 1 Observed Data For Previous 48 Hours

Caption
Day and Hour Reservoir Elevation (behind dam)* Tailwater Elevation (below dam)* Average Hourly Discharge*
3/22/2019 2 AM EDT 828.00 716.33 1,864
3/22/2019 3 AM EDT 828.07 716.33 1,871
3/22/2019 4 AM EDT 828.11 716.49 1,893
3/22/2019 5 AM EDT 828.12 717.52 2,604
3/22/2019 6 AM EDT 828.11 718.41 3,276
3/22/2019 7 AM EDT 828.07 719.09 4,024
3/22/2019 8 AM EDT 828.02 719.11 4,011
3/22/2019 9 AM EDT 827.97 719.09 3,996
3/22/2019 10 AM EDT 827.93 719.09 3,993
3/22/2019 11 AM EDT 827.93 718.17 3,206
3/22/2019 12 PM EDT 827.91 717.34 2,518
3/22/2019 1 PM EDT 827.94 717.35 2,540
3/22/2019 2 PM EDT 827.98 716.37 1,859
3/22/2019 3 PM EDT 828.02 716.37 1,860
3/22/2019 4 PM EDT 828.07 716.38 1,870
3/22/2019 5 PM EDT 828.11 716.39 1,881
3/22/2019 6 PM EDT 828.14 716.54 1,898
3/22/2019 7 PM EDT 828.16 717.54 2,611
3/22/2019 8 PM EDT 828.16 718.28 3,265
3/22/2019 9 PM EDT 828.10 719.10 3,999
3/22/2019 10 PM EDT 828.06 719.09 3,988
3/22/2019 11 PM EDT 828.02 719.11 3,990
3/23/2019 12 AM EDT 828.01 718.22 3,242
3/23/2019 1 AM EDT 828.03 717.34 2,553
3/23/2019 2 AM EDT 828.06 716.42 1,883
3/23/2019 3 AM EDT 828.10 716.42 1,887
3/23/2019 4 AM EDT 828.14 716.42 1,893
3/23/2019 5 AM EDT 828.19 716.55 1,918
3/23/2019 6 AM EDT 828.20 717.49 2,607
3/23/2019 7 AM EDT 828.18 718.37 3,286
3/23/2019 8 AM EDT 828.13 719.10 4,010
3/23/2019 9 AM EDT 828.09 719.09 4,012
3/23/2019 10 AM EDT 828.04 719.09 4,000
3/23/2019 11 AM EDT 828.01 718.25 3,248
3/23/2019 12 PM EDT 828.01 718.22 3,234
3/23/2019 1 PM EDT 828.02 717.34 2,555
3/23/2019 2 PM EDT 828.06 716.42 1,884
3/23/2019 3 PM EDT 828.10 716.42 1,888
3/23/2019 4 PM EDT 828.14 716.43 1,898
3/23/2019 5 PM EDT 828.19 716.44 1,907
3/23/2019 6 PM EDT 828.22 716.54 1,921
3/23/2019 7 PM EDT 828.23 717.52 2,619
3/23/2019 8 PM EDT 828.22 718.26 3,282
3/23/2019 9 PM EDT 828.21 718.26 3,280
3/23/2019 10 PM EDT 828.20 718.26 3,275
3/23/2019 11 PM EDT 828.19 718.26 3,278
3/24/2019 12 AM EDT 828.20 717.36 2,586
3/24/2019 1 AM EDT 828.25 716.44 1,922

Elevations are in feet above sea level. Discharges are in cubic feet per second and are reported at the end of the hour.